sensor_id;sensor_type;location;lat;lon;timestamp;P1;durP1;ratioP1;P2;durP2;ratioP2
11064;SDS011;5585;52.530;7.320;2024-02-21T00:01:55;22.57;;;13.73;;
11064;SDS011;5585;52.530;7.320;2024-02-21T00:04:21;20.70;;;13.03;;
11064;SDS011;5585;52.530;7.320;2024-02-21T00:06:48;20.77;;;13.27;;
11064;SDS011;5585;52.530;7.320;2024-02-21T00:09:14;18.10;;;12.83;;
11064;SDS011;5585;52.530;7.320;2024-02-21T00:11:42;22.93;;;13.30;;
11064;SDS011;5585;52.530;7.320;2024-02-21T00:14:08;22.13;;;12.53;;
11064;SDS011;5585;52.530;7.320;2024-02-21T00:16:35;21.53;;;13.97;;
11064;SDS011;5585;52.530;7.320;2024-02-21T00:19:01;21.77;;;12.33;;
11064;SDS011;5585;52.530;7.320;2024-02-21T00:21:28;22.57;;;13.40;;
11064;SDS011;5585;52.530;7.320;2024-02-21T00:23:54;19.07;;;12.73;;
11064;SDS011;5585;52.530;7.320;2024-02-21T00:26:20;22.57;;;14.23;;
11064;SDS011;5585;52.530;7.320;2024-02-21T00:28:48;18.90;;;13.13;;
11064;SDS011;5585;52.530;7.320;2024-02-21T00:31:15;20.27;;;13.60;;
11064;SDS011;5585;52.530;7.320;2024-02-21T00:33:41;24.30;;;13.13;;
11064;SDS011;5585;52.530;7.320;2024-02-21T00:36:07;21.50;;;13.80;;
11064;SDS011;5585;52.530;7.320;2024-02-21T00:38:34;20.97;;;13.53;;
11064;SDS011;5585;52.530;7.320;2024-02-21T00:41:00;21.43;;;12.80;;
11064;SDS011;5585;52.530;7.320;2024-02-21T00:43:27;17.20;;;12.97;;
11064;SDS011;5585;52.530;7.320;2024-02-21T00:45:54;19.93;;;12.33;;
11064;SDS011;5585;52.530;7.320;2024-02-21T00:48:21;20.77;;;13.30;;
11064;SDS011;5585;52.530;7.320;2024-02-21T00:50:48;20.40;;;12.97;;
11064;SDS011;5585;52.530;7.320;2024-02-21T00:53:14;19.57;;;12.80;;
11064;SDS011;5585;52.530;7.320;2024-02-21T00:55:40;20.70;;;12.90;;
11064;SDS011;5585;52.530;7.320;2024-02-21T00:58:08;19.10;;;13.03;;
11064;SDS011;5585;52.530;7.320;2024-02-21T01:00:34;18.67;;;12.80;;
11064;SDS011;5585;52.530;7.320;2024-02-21T01:03:03;21.20;;;13.47;;
11064;SDS011;5585;52.530;7.320;2024-02-21T01:05:29;20.23;;;13.97;;
11064;SDS011;5585;52.530;7.320;2024-02-21T01:07:55;17.37;;;12.00;;
11064;SDS011;5585;52.530;7.320;2024-02-21T01:10:22;18.00;;;12.10;;
11064;SDS011;5585;52.530;7.320;2024-02-21T01:12:49;19.43;;;12.80;;
11064;SDS011;5585;52.530;7.320;2024-02-21T01:15:15;18.90;;;12.13;;
11064;SDS011;5585;52.530;7.320;2024-02-21T01:17:42;19.37;;;12.83;;
11064;SDS011;5585;52.530;7.320;2024-02-21T01:20:10;17.40;;;12.50;;
11064;SDS011;5585;52.530;7.320;2024-02-21T01:22:37;20.00;;;12.57;;
11064;SDS011;5585;52.530;7.320;2024-02-21T01:25:05;21.30;;;13.10;;
11064;SDS011;5585;52.530;7.320;2024-02-21T01:27:31;16.93;;;12.00;;
11064;SDS011;5585;52.530;7.320;2024-02-21T01:29:58;16.67;;;11.70;;
11064;SDS011;5585;52.530;7.320;2024-02-21T01:32:24;22.13;;;12.67;;
11064;SDS011;5585;52.530;7.320;2024-02-21T01:34:51;17.43;;;11.50;;
11064;SDS011;5585;52.530;7.320;2024-02-21T01:37:18;19.13;;;12.13;;
11064;SDS011;5585;52.530;7.320;2024-02-21T01:39:45;19.83;;;11.40;;
11064;SDS011;5585;52.530;7.320;2024-02-21T01:42:11;17.73;;;12.30;;
11064;SDS011;5585;52.530;7.320;2024-02-21T01:44:38;17.17;;;11.50;;
11064;SDS011;5585;52.530;7.320;2024-02-21T01:47:07;18.20;;;12.17;;
11064;SDS011;5585;52.530;7.320;2024-02-21T01:49:34;19.13;;;11.97;;
11064;SDS011;5585;52.530;7.320;2024-02-21T01:52:00;15.37;;;11.47;;
11064;SDS011;5585;52.530;7.320;2024-02-21T01:54:27;16.87;;;11.03;;
11064;SDS011;5585;52.530;7.320;2024-02-21T01:56:54;14.93;;;10.63;;
11064;SDS011;5585;52.530;7.320;2024-02-21T01:59:21;16.60;;;10.90;;
11064;SDS011;5585;52.530;7.320;2024-02-21T02:01:47;20.70;;;12.00;;
11064;SDS011;5585;52.530;7.320;2024-02-21T02:04:14;18.07;;;10.70;;
11064;SDS011;5585;52.530;7.320;2024-02-21T02:06:40;17.37;;;11.23;;
11064;SDS011;5585;52.530;7.320;2024-02-21T02:09:07;16.43;;;11.20;;
11064;SDS011;5585;52.530;7.320;2024-02-21T02:11:35;14.93;;;10.90;;
11064;SDS011;5585;52.530;7.320;2024-02-21T02:14:01;14.97;;;10.23;;
11064;SDS011;5585;52.530;7.320;2024-02-21T02:16:28;17.17;;;11.00;;
11064;SDS011;5585;52.530;7.320;2024-02-21T02:18:54;18.47;;;11.40;;
11064;SDS011;5585;52.530;7.320;2024-02-21T02:21:23;16.87;;;11.10;;
11064;SDS011;5585;52.530;7.320;2024-02-21T02:23:51;14.70;;;10.67;;
11064;SDS011;5585;52.530;7.320;2024-02-21T02:26:17;22.00;;;11.43;;
11064;SDS011;5585;52.530;7.320;2024-02-21T02:28:43;14.43;;;10.13;;
11064;SDS011;5585;52.530;7.320;2024-02-21T02:31:10;13.03;;;10.17;;
11064;SDS011;5585;52.530;7.320;2024-02-21T02:33:36;13.97;;;9.47;;
11064;SDS011;5585;52.530;7.320;2024-02-21T02:36:03;15.90;;;9.70;;
11064;SDS011;5585;52.530;7.320;2024-02-21T02:38:30;12.57;;;9.60;;
11064;SDS011;5585;52.530;7.320;2024-02-21T02:40:58;15.43;;;10.03;;
11064;SDS011;5585;52.530;7.320;2024-02-21T02:43:24;15.47;;;9.33;;
11064;SDS011;5585;52.530;7.320;2024-02-21T02:45:51;13.63;;;9.37;;
11064;SDS011;5585;52.530;7.320;2024-02-21T02:48:17;13.43;;;9.83;;
11064;SDS011;5585;52.530;7.320;2024-02-21T02:50:44;15.80;;;10.10;;
11064;SDS011;5585;52.530;7.320;2024-02-21T02:53:11;16.43;;;10.27;;
11064;SDS011;5585;52.530;7.320;2024-02-21T02:55:38;15.23;;;10.53;;
11064;SDS011;5585;52.530;7.320;2024-02-21T02:58:05;17.20;;;10.47;;
11064;SDS011;5585;52.530;7.320;2024-02-21T03:00:33;17.10;;;9.80;;
11064;SDS011;5585;52.530;7.320;2024-02-21T03:03:01;13.87;;;10.27;;
11064;SDS011;5585;52.530;7.320;2024-02-21T03:05:29;16.97;;;10.97;;
11064;SDS011;5585;52.530;7.320;2024-02-21T03:07:55;18.13;;;10.33;;
11064;SDS011;5585;52.530;7.320;2024-02-21T03:10:22;15.60;;;11.03;;
11064;SDS011;5585;52.530;7.320;2024-02-21T03:12:48;18.43;;;12.13;;
11064;SDS011;5585;52.530;7.320;2024-02-21T03:15:16;15.07;;;10.53;;
11064;SDS011;5585;52.530;7.320;2024-02-21T03:17:42;17.30;;;11.63;;
11064;SDS011;5585;52.530;7.320;2024-02-21T03:20:09;18.33;;;12.17;;
11064;SDS011;5585;52.530;7.320;2024-02-21T03:22:35;16.97;;;11.53;;
11064;SDS011;5585;52.530;7.320;2024-02-21T03:25:02;14.57;;;11.13;;
11064;SDS011;5585;52.530;7.320;2024-02-21T03:27:29;18.27;;;12.17;;
11064;SDS011;5585;52.530;7.320;2024-02-21T03:29:55;19.00;;;12.80;;
11064;SDS011;5585;52.530;7.320;2024-02-21T03:32:23;15.53;;;12.23;;
11064;SDS011;5585;52.530;7.320;2024-02-21T03:34:49;16.63;;;12.43;;
11064;SDS011;5585;52.530;7.320;2024-02-21T03:37:16;17.70;;;11.70;;
11064;SDS011;5585;52.530;7.320;2024-02-21T03:39:42;19.03;;;12.80;;
11064;SDS011;5585;52.530;7.320;2024-02-21T03:42:08;16.17;;;12.30;;
11064;SDS011;5585;52.530;7.320;2024-02-21T03:44:35;12.93;;;11.50;;
11064;SDS011;5585;52.530;7.320;2024-02-21T03:47:01;18.40;;;12.90;;
11064;SDS011;5585;52.530;7.320;2024-02-21T03:49:29;17.53;;;13.23;;
11064;SDS011;5585;52.530;7.320;2024-02-21T03:51:56;16.47;;;12.27;;
11064;SDS011;5585;52.530;7.320;2024-02-21T03:54:22;16.03;;;13.20;;
11064;SDS011;5585;52.530;7.320;2024-02-21T03:56:49;17.50;;;12.40;;
11064;SDS011;5585;52.530;7.320;2024-02-21T03:59:15;19.43;;;13.60;;
11064;SDS011;5585;52.530;7.320;2024-02-21T04:01:42;17.00;;;12.57;;
11064;SDS011;5585;52.530;7.320;2024-02-21T04:04:09;14.83;;;12.33;;
11064;SDS011;5585;52.530;7.320;2024-02-21T04:06:37;17.23;;;12.47;;
11064;SDS011;5585;52.530;7.320;2024-02-21T04:09:03;18.53;;;12.30;;
11064;SDS011;5585;52.530;7.320;2024-02-21T04:11:29;16.23;;;12.23;;
11064;SDS011;5585;52.530;7.320;2024-02-21T04:13:56;16.50;;;12.63;;
11064;SDS011;5585;52.530;7.320;2024-02-21T04:16:22;16.90;;;13.43;;
11064;SDS011;5585;52.530;7.320;2024-02-21T04:18:49;15.97;;;12.17;;
11064;SDS011;5585;52.530;7.320;2024-02-21T04:21:15;19.57;;;13.10;;
11064;SDS011;5585;52.530;7.320;2024-02-21T04:23:44;15.67;;;11.80;;
11064;SDS011;5585;52.530;7.320;2024-02-21T04:26:10;24.37;;;13.30;;
11064;SDS011;5585;52.530;7.320;2024-02-21T04:28:36;15.27;;;11.80;;
11064;SDS011;5585;52.530;7.320;2024-02-21T04:31:03;17.80;;;13.20;;
11064;SDS011;5585;52.530;7.320;2024-02-21T04:33:29;15.57;;;12.07;;
11064;SDS011;5585;52.530;7.320;2024-02-21T04:35:56;22.10;;;12.87;;
11064;SDS011;5585;52.530;7.320;2024-02-21T04:38:23;18.77;;;13.80;;
11064;SDS011;5585;52.530;7.320;2024-02-21T04:40:51;18.00;;;12.83;;
11064;SDS011;5585;52.530;7.320;2024-02-21T04:43:18;23.07;;;14.50;;
11064;SDS011;5585;52.530;7.320;2024-02-21T04:45:44;22.13;;;13.80;;
11064;SDS011;5585;52.530;7.320;2024-02-21T04:48:10;17.23;;;13.40;;
11064;SDS011;5585;52.530;7.320;2024-02-21T04:50:37;21.27;;;13.67;;
11064;SDS011;5585;52.530;7.320;2024-02-21T04:53:03;16.50;;;12.57;;
11064;SDS011;5585;52.530;7.320;2024-02-21T04:55:30;14.83;;;12.67;;
11064;SDS011;5585;52.530;7.320;2024-02-21T04:57:57;18.13;;;12.93;;
11064;SDS011;5585;52.530;7.320;2024-02-21T05:00:24;16.87;;;12.73;;
11064;SDS011;5585;52.530;7.320;2024-02-21T05:02:50;17.47;;;12.33;;
11064;SDS011;5585;52.530;7.320;2024-02-21T05:05:17;15.43;;;12.80;;
11064;SDS011;5585;52.530;7.320;2024-02-21T05:07:43;19.17;;;13.13;;
11064;SDS011;5585;52.530;7.320;2024-02-21T05:10:10;19.50;;;12.53;;
11064;SDS011;5585;52.530;7.320;2024-02-21T05:12:36;19.97;;;13.30;;
11064;SDS011;5585;52.530;7.320;2024-02-21T05:15:05;20.23;;;12.90;;
11064;SDS011;5585;52.530;7.320;2024-02-21T05:17:31;17.50;;;12.77;;
11064;SDS011;5585;52.530;7.320;2024-02-21T05:19:58;15.13;;;12.33;;
11064;SDS011;5585;52.530;7.320;2024-02-21T05:22:24;14.53;;;12.13;;
11064;SDS011;5585;52.530;7.320;2024-02-21T05:24:51;16.57;;;12.53;;
11064;SDS011;5585;52.530;7.320;2024-02-21T05:27:17;18.90;;;13.10;;
11064;SDS011;5585;52.530;7.320;2024-02-21T05:29:43;19.03;;;13.03;;
11064;SDS011;5585;52.530;7.320;2024-02-21T05:32:12;16.57;;;11.70;;
11064;SDS011;5585;52.530;7.320;2024-02-21T05:34:38;14.90;;;11.23;;
11064;SDS011;5585;52.530;7.320;2024-02-21T05:37:04;16.53;;;12.13;;
11064;SDS011;5585;52.530;7.320;2024-02-21T05:39:31;16.20;;;11.20;;
11064;SDS011;5585;52.530;7.320;2024-02-21T05:41:58;18.13;;;11.93;;
11064;SDS011;5585;52.530;7.320;2024-02-21T05:44:24;13.77;;;11.57;;
11064;SDS011;5585;52.530;7.320;2024-02-21T05:46:52;18.80;;;12.97;;
11064;SDS011;5585;52.530;7.320;2024-02-21T05:49:19;16.27;;;12.70;;
11064;SDS011;5585;52.530;7.320;2024-02-21T05:51:46;15.43;;;10.80;;
11064;SDS011;5585;52.530;7.320;2024-02-21T05:54:13;16.70;;;12.07;;
11064;SDS011;5585;52.530;7.320;2024-02-21T05:56:39;18.13;;;12.83;;
11064;SDS011;5585;52.530;7.320;2024-02-21T05:59:06;17.27;;;11.80;;
11064;SDS011;5585;52.530;7.320;2024-02-21T06:01:32;18.57;;;11.93;;
11064;SDS011;5585;52.530;7.320;2024-02-21T06:03:58;16.17;;;11.10;;
11064;SDS011;5585;52.530;7.320;2024-02-21T06:06:26;17.50;;;11.87;;
11064;SDS011;5585;52.530;7.320;2024-02-21T06:08:53;15.77;;;11.80;;
11064;SDS011;5585;52.530;7.320;2024-02-21T06:11:19;16.17;;;10.93;;
11064;SDS011;5585;52.530;7.320;2024-02-21T06:13:45;14.43;;;10.80;;
11064;SDS011;5585;52.530;7.320;2024-02-21T06:16:12;15.37;;;10.40;;
11064;SDS011;5585;52.530;7.320;2024-02-21T06:18:38;17.17;;;11.20;;
11064;SDS011;5585;52.530;7.320;2024-02-21T06:21:05;16.30;;;10.90;;
11064;SDS011;5585;52.530;7.320;2024-02-21T06:23:32;17.30;;;10.73;;
11064;SDS011;5585;52.530;7.320;2024-02-21T06:25:59;15.83;;;11.00;;
11064;SDS011;5585;52.530;7.320;2024-02-21T06:28:25;14.07;;;10.30;;
11064;SDS011;5585;52.530;7.320;2024-02-21T06:30:52;13.63;;;10.20;;
11064;SDS011;5585;52.530;7.320;2024-02-21T06:33:18;16.03;;;10.73;;
11064;SDS011;5585;52.530;7.320;2024-02-21T06:35:47;15.53;;;10.47;;
11064;SDS011;5585;52.530;7.320;2024-02-21T06:38:16;16.90;;;10.60;;
11064;SDS011;5585;52.530;7.320;2024-02-21T06:40:44;14.13;;;10.17;;
11064;SDS011;5585;52.530;7.320;2024-02-21T06:43:14;15.37;;;10.27;;
11064;SDS011;5585;52.530;7.320;2024-02-21T06:45:41;15.67;;;10.00;;
11064;SDS011;5585;52.530;7.320;2024-02-21T06:48:07;13.60;;;9.77;;
11064;SDS011;5585;52.530;7.320;2024-02-21T06:50:34;13.27;;;9.37;;
11064;SDS011;5585;52.530;7.320;2024-02-21T06:53:00;13.70;;;9.60;;
11064;SDS011;5585;52.530;7.320;2024-02-21T06:55:27;11.00;;;9.10;;
11064;SDS011;5585;52.530;7.320;2024-02-21T06:57:54;13.33;;;9.40;;
11064;SDS011;5585;52.530;7.320;2024-02-21T07:00:21;12.40;;;9.43;;
11064;SDS011;5585;52.530;7.320;2024-02-21T07:02:48;13.03;;;9.17;;
11064;SDS011;5585;52.530;7.320;2024-02-21T07:05:14;15.87;;;10.17;;
11064;SDS011;5585;52.530;7.320;2024-02-21T07:07:40;17.07;;;9.70;;
11064;SDS011;5585;52.530;7.320;2024-02-21T07:10:07;12.13;;;8.97;;
11064;SDS011;5585;52.530;7.320;2024-02-21T07:12:34;18.57;;;10.77;;
11064;SDS011;5585;52.530;7.320;2024-02-21T07:15:04;14.00;;;9.10;;
11064;SDS011;5585;52.530;7.320;2024-02-21T07:17:30;13.33;;;9.17;;
11064;SDS011;5585;52.530;7.320;2024-02-21T07:19:56;12.40;;;8.50;;
11064;SDS011;5585;52.530;7.320;2024-02-21T07:22:24;13.50;;;8.80;;
11064;SDS011;5585;52.530;7.320;2024-02-21T07:24:50;12.47;;;8.33;;
11064;SDS011;5585;52.530;7.320;2024-02-21T07:27:17;10.80;;;8.17;;
11064;SDS011;5585;52.530;7.320;2024-02-21T07:29:43;15.83;;;8.77;;
11064;SDS011;5585;52.530;7.320;2024-02-21T07:32:13;12.27;;;7.83;;
11064;SDS011;5585;52.530;7.320;2024-02-21T07:34:40;9.97;;;8.23;;
11064;SDS011;5585;52.530;7.320;2024-02-21T07:37:06;12.97;;;7.70;;
11064;SDS011;5585;52.530;7.320;2024-02-21T07:39:35;11.30;;;7.70;;
11064;SDS011;5585;52.530;7.320;2024-02-21T07:42:01;10.30;;;7.00;;
11064;SDS011;5585;52.530;7.320;2024-02-21T07:44:28;13.17;;;8.13;;
11064;SDS011;5585;52.530;7.320;2024-02-21T07:46:54;12.53;;;7.50;;
11064;SDS011;5585;52.530;7.320;2024-02-21T07:49:22;14.10;;;8.23;;
11064;SDS011;5585;52.530;7.320;2024-02-21T07:51:48;12.53;;;8.07;;
11064;SDS011;5585;52.530;7.320;2024-02-21T07:54:15;11.70;;;8.13;;
11064;SDS011;5585;52.530;7.320;2024-02-21T07:56:41;11.50;;;7.80;;
11064;SDS011;5585;52.530;7.320;2024-02-21T07:59:08;12.17;;;7.10;;
11064;SDS011;5585;52.530;7.320;2024-02-21T08:01:34;10.37;;;7.17;;
11064;SDS011;5585;52.530;7.320;2024-02-21T08:04:00;12.03;;;7.17;;
11064;SDS011;5585;52.530;7.320;2024-02-21T08:06:30;9.60;;;7.10;;
11064;SDS011;5585;52.530;7.320;2024-02-21T08:08:56;11.80;;;7.70;;
11064;SDS011;5585;52.530;7.320;2024-02-21T08:11:23;14.87;;;8.47;;
11064;SDS011;5585;52.530;7.320;2024-02-21T08:13:49;12.67;;;7.90;;
11064;SDS011;5585;52.530;7.320;2024-02-21T08:16:16;11.30;;;8.40;;
11064;SDS011;5585;52.530;7.320;2024-02-21T08:18:43;13.77;;;8.27;;
11064;SDS011;5585;52.530;7.320;2024-02-21T08:21:10;12.43;;;7.87;;
11064;SDS011;5585;52.530;7.320;2024-02-21T08:23:37;10.33;;;7.73;;
11064;SDS011;5585;52.530;7.320;2024-02-21T08:26:04;11.90;;;7.53;;
11064;SDS011;5585;52.530;7.320;2024-02-21T08:28:30;10.60;;;8.10;;
11064;SDS011;5585;52.530;7.320;2024-02-21T08:30:57;12.63;;;7.93;;
11064;SDS011;5585;52.530;7.320;2024-02-21T08:33:23;11.83;;;7.67;;
11064;SDS011;5585;52.530;7.320;2024-02-21T08:35:50;12.77;;;8.17;;
11064;SDS011;5585;52.530;7.320;2024-02-21T08:38:16;14.63;;;8.33;;
11064;SDS011;5585;52.530;7.320;2024-02-21T08:40:45;11.43;;;7.73;;
11064;SDS011;5585;52.530;7.320;2024-02-21T08:43:11;10.40;;;7.33;;
11064;SDS011;5585;52.530;7.320;2024-02-21T08:45:38;12.00;;;7.83;;
11064;SDS011;5585;52.530;7.320;2024-02-21T08:48:05;16.47;;;8.73;;
11064;SDS011;5585;52.530;7.320;2024-02-21T08:50:31;13.93;;;7.40;;
11064;SDS011;5585;52.530;7.320;2024-02-21T08:52:58;11.47;;;8.13;;
11064;SDS011;5585;52.530;7.320;2024-02-21T08:55:24;14.10;;;8.87;;
11064;SDS011;5585;52.530;7.320;2024-02-21T08:57:52;12.10;;;8.03;;
11064;SDS011;5585;52.530;7.320;2024-02-21T09:00:18;11.60;;;7.83;;
11064;SDS011;5585;52.530;7.320;2024-02-21T09:02:49;11.83;;;7.70;;
11064;SDS011;5585;52.530;7.320;2024-02-21T09:05:15;11.23;;;7.83;;
11064;SDS011;5585;52.530;7.320;2024-02-21T09:07:42;15.30;;;8.27;;
11064;SDS011;5585;52.530;7.320;2024-02-21T09:10:08;15.20;;;7.80;;
11064;SDS011;5585;52.530;7.320;2024-02-21T09:12:35;14.23;;;7.83;;
11064;SDS011;5585;52.530;7.320;2024-02-21T09:15:03;11.23;;;7.53;;
11064;SDS011;5585;52.530;7.320;2024-02-21T09:17:30;11.23;;;7.47;;
11064;SDS011;5585;52.530;7.320;2024-02-21T09:19:57;11.43;;;7.47;;
11064;SDS011;5585;52.530;7.320;2024-02-21T09:22:24;11.50;;;7.53;;
11064;SDS011;5585;52.530;7.320;2024-02-21T09:24:51;13.50;;;7.30;;
11064;SDS011;5585;52.530;7.320;2024-02-21T09:27:17;12.40;;;7.00;;
11064;SDS011;5585;52.530;7.320;2024-02-21T09:29:43;9.67;;;6.43;;
11064;SDS011;5585;52.530;7.320;2024-02-21T09:32:11;10.10;;;7.13;;
11064;SDS011;5585;52.530;7.320;2024-02-21T09:34:39;12.87;;;6.80;;
11064;SDS011;5585;52.530;7.320;2024-02-21T09:37:05;10.20;;;7.20;;
11064;SDS011;5585;52.530;7.320;2024-02-21T09:39:31;10.30;;;6.13;;
11064;SDS011;5585;52.530;7.320;2024-02-21T09:41:58;10.93;;;5.93;;
11064;SDS011;5585;52.530;7.320;2024-02-21T09:44:25;9.40;;;5.10;;
11064;SDS011;5585;52.530;7.320;2024-02-21T09:46:57;7.40;;;5.93;;
11064;SDS011;5585;52.530;7.320;2024-02-21T09:49:30;10.50;;;6.40;;
11064;SDS011;5585;52.530;7.320;2024-02-21T09:51:58;8.30;;;5.33;;
11064;SDS011;5585;52.530;7.320;2024-02-21T09:54:28;12.50;;;6.13;;
11064;SDS011;5585;52.530;7.320;2024-02-21T09:56:54;9.03;;;5.70;;
11064;SDS011;5585;52.530;7.320;2024-02-21T09:59:21;8.37;;;5.33;;
11064;SDS011;5585;52.530;7.320;2024-02-21T10:01:47;7.63;;;4.90;;
11064;SDS011;5585;52.530;7.320;2024-02-21T10:04:15;9.03;;;5.67;;
11064;SDS011;5585;52.530;7.320;2024-02-21T10:06:43;11.50;;;5.97;;
11064;SDS011;5585;52.530;7.320;2024-02-21T10:09:19;9.83;;;5.63;;
11064;SDS011;5585;52.530;7.320;2024-02-21T10:11:46;8.87;;;5.50;;
11064;SDS011;5585;52.530;7.320;2024-02-21T10:14:12;7.93;;;4.80;;
11064;SDS011;5585;52.530;7.320;2024-02-21T10:16:39;9.40;;;5.20;;
11064;SDS011;5585;52.530;7.320;2024-02-21T10:19:05;9.30;;;5.13;;
11064;SDS011;5585;52.530;7.320;2024-02-21T10:21:32;9.67;;;5.40;;
11064;SDS011;5585;52.530;7.320;2024-02-21T10:24:00;11.90;;;5.60;;
11064;SDS011;5585;52.530;7.320;2024-02-21T10:26:26;10.23;;;5.37;;
11064;SDS011;5585;52.530;7.320;2024-02-21T10:28:52;10.83;;;5.03;;
11064;SDS011;5585;52.530;7.320;2024-02-21T10:31:23;7.30;;;4.80;;
11064;SDS011;5585;52.530;7.320;2024-02-21T10:33:53;8.10;;;4.83;;
11064;SDS011;5585;52.530;7.320;2024-02-21T10:36:20;11.03;;;5.70;;
11064;SDS011;5585;52.530;7.320;2024-02-21T10:38:46;8.53;;;4.47;;
11064;SDS011;5585;52.530;7.320;2024-02-21T10:41:14;5.93;;;4.50;;
11064;SDS011;5585;52.530;7.320;2024-02-21T10:43:41;6.57;;;4.83;;
11064;SDS011;5585;52.530;7.320;2024-02-21T10:46:07;9.07;;;4.60;;
11064;SDS011;5585;52.530;7.320;2024-02-21T10:48:38;7.90;;;5.07;;
11064;SDS011;5585;52.530;7.320;2024-02-21T10:51:09;11.10;;;5.47;;
11064;SDS011;5585;52.530;7.320;2024-02-21T10:53:40;7.83;;;5.00;;
11064;SDS011;5585;52.530;7.320;2024-02-21T10:56:11;9.10;;;4.30;;
11064;SDS011;5585;52.530;7.320;2024-02-21T10:58:41;6.23;;;4.70;;
11064;SDS011;5585;52.530;7.320;2024-02-21T11:01:08;6.33;;;3.90;;
11064;SDS011;5585;52.530;7.320;2024-02-21T11:03:34;7.13;;;4.83;;
11064;SDS011;5585;52.530;7.320;2024-02-21T11:06:01;8.93;;;4.80;;
11064;SDS011;5585;52.530;7.320;2024-02-21T11:08:30;10.07;;;4.50;;
11064;SDS011;5585;52.530;7.320;2024-02-21T11:10:56;10.17;;;5.30;;
11064;SDS011;5585;52.530;7.320;2024-02-21T11:13:29;6.37;;;4.93;;
11064;SDS011;5585;52.530;7.320;2024-02-21T11:16:06;11.20;;;6.00;;
11064;SDS011;5585;52.530;7.320;2024-02-21T11:18:34;9.27;;;5.97;;
11064;SDS011;5585;52.530;7.320;2024-02-21T11:21:00;10.77;;;7.47;;
11064;SDS011;5585;52.530;7.320;2024-02-21T11:23:28;10.87;;;6.27;;
11064;SDS011;5585;52.530;7.320;2024-02-21T11:26:03;9.20;;;5.80;;
11064;SDS011;5585;52.530;7.320;2024-02-21T11:28:30;8.33;;;5.53;;
11064;SDS011;5585;52.530;7.320;2024-02-21T11:31:04;8.87;;;5.53;;
11064;SDS011;5585;52.530;7.320;2024-02-21T11:33:34;9.87;;;5.27;;
11064;SDS011;5585;52.530;7.320;2024-02-21T11:36:00;8.57;;;5.10;;
11064;SDS011;5585;52.530;7.320;2024-02-21T11:38:29;10.63;;;5.63;;
11064;SDS011;5585;52.530;7.320;2024-02-21T11:40:55;7.83;;;5.13;;
11064;SDS011;5585;52.530;7.320;2024-02-21T11:43:21;7.13;;;5.10;;
11064;SDS011;5585;52.530;7.320;2024-02-21T11:45:48;7.17;;;4.93;;
11064;SDS011;5585;52.530;7.320;2024-02-21T11:48:14;7.87;;;5.10;;
11064;SDS011;5585;52.530;7.320;2024-02-21T11:50:42;6.83;;;4.93;;
11064;SDS011;5585;52.530;7.320;2024-02-21T11:53:19;6.60;;;4.40;;
11064;SDS011;5585;52.530;7.320;2024-02-21T11:55:46;6.63;;;4.00;;
11064;SDS011;5585;52.530;7.320;2024-02-21T11:58:12;7.03;;;4.30;;
11064;SDS011;5585;52.530;7.320;2024-02-21T12:00:39;6.70;;;4.13;;
11064;SDS011;5585;52.530;7.320;2024-02-21T12:03:05;5.63;;;3.80;;
11064;SDS011;5585;52.530;7.320;2024-02-21T12:05:32;5.37;;;3.70;;
11064;SDS011;5585;52.530;7.320;2024-02-21T12:08:00;6.97;;;3.60;;
11064;SDS011;5585;52.530;7.320;2024-02-21T12:10:26;4.33;;;3.30;;
11064;SDS011;5585;52.530;7.320;2024-02-21T12:12:53;6.63;;;3.90;;
11064;SDS011;5585;52.530;7.320;2024-02-21T12:15:23;6.53;;;3.83;;
11064;SDS011;5585;52.530;7.320;2024-02-21T12:17:49;4.90;;;3.47;;
11064;SDS011;5585;52.530;7.320;2024-02-21T12:20:17;5.63;;;3.20;;
11064;SDS011;5585;52.530;7.320;2024-02-21T12:22:45;5.67;;;3.40;;
11064;SDS011;5585;52.530;7.320;2024-02-21T12:25:20;5.10;;;2.87;;
11064;SDS011;5585;52.530;7.320;2024-02-21T12:27:47;5.90;;;2.93;;
11064;SDS011;5585;52.530;7.320;2024-02-21T12:30:14;7.17;;;2.90;;
11064;SDS011;5585;52.530;7.320;2024-02-21T12:32:40;5.47;;;2.83;;
11064;SDS011;5585;52.530;7.320;2024-02-21T12:35:07;4.00;;;3.10;;
11064;SDS011;5585;52.530;7.320;2024-02-21T12:37:34;4.70;;;2.50;;
11064;SDS011;5585;52.530;7.320;2024-02-21T12:40:00;6.13;;;2.77;;
11064;SDS011;5585;52.530;7.320;2024-02-21T12:42:31;5.50;;;2.90;;
11064;SDS011;5585;52.530;7.320;2024-02-21T12:44:58;3.87;;;2.87;;
11064;SDS011;5585;52.530;7.320;2024-02-21T12:47:24;3.23;;;2.23;;
11064;SDS011;5585;52.530;7.320;2024-02-21T12:49:51;3.40;;;2.50;;
11064;SDS011;5585;52.530;7.320;2024-02-21T12:52:18;4.50;;;2.50;;
11064;SDS011;5585;52.530;7.320;2024-02-21T12:54:44;3.30;;;2.40;;
11064;SDS011;5585;52.530;7.320;2024-02-21T12:57:11;4.33;;;3.07;;
11064;SDS011;5585;52.530;7.320;2024-02-21T12:59:39;5.87;;;3.40;;
11064;SDS011;5585;52.530;7.320;2024-02-21T13:02:05;4.30;;;2.50;;
11064;SDS011;5585;52.530;7.320;2024-02-21T13:04:33;3.77;;;2.80;;
11064;SDS011;5585;52.530;7.320;2024-02-21T13:07:00;6.87;;;4.07;;
11064;SDS011;5585;52.530;7.320;2024-02-21T13:09:26;3.90;;;2.70;;
11064;SDS011;5585;52.530;7.320;2024-02-21T13:11:53;4.17;;;2.80;;
11064;SDS011;5585;52.530;7.320;2024-02-21T13:14:19;7.00;;;3.20;;
11064;SDS011;5585;52.530;7.320;2024-02-21T13:16:49;7.33;;;3.13;;
11064;SDS011;5585;52.530;7.320;2024-02-21T13:19:15;4.20;;;3.03;;
11064;SDS011;5585;52.530;7.320;2024-02-21T13:21:42;4.60;;;2.87;;
11064;SDS011;5585;52.530;7.320;2024-02-21T13:24:08;5.43;;;3.13;;
11064;SDS011;5585;52.530;7.320;2024-02-21T13:26:35;8.23;;;4.43;;
11064;SDS011;5585;52.530;7.320;2024-02-21T13:29:01;6.50;;;4.10;;
11064;SDS011;5585;52.530;7.320;2024-02-21T13:31:28;5.97;;;3.67;;
11064;SDS011;5585;52.530;7.320;2024-02-21T13:33:56;5.80;;;4.20;;
11064;SDS011;5585;52.530;7.320;2024-02-21T13:36:22;8.30;;;4.23;;
11064;SDS011;5585;52.530;7.320;2024-02-21T13:38:49;5.03;;;3.30;;
11064;SDS011;5585;52.530;7.320;2024-02-21T13:41:16;7.73;;;3.50;;
11064;SDS011;5585;52.530;7.320;2024-02-21T13:43:43;5.90;;;3.40;;
11064;SDS011;5585;52.530;7.320;2024-02-21T13:46:11;6.97;;;3.00;;
11064;SDS011;5585;52.530;7.320;2024-02-21T13:48:38;6.67;;;3.20;;
11064;SDS011;5585;52.530;7.320;2024-02-21T13:51:06;6.37;;;2.97;;
11064;SDS011;5585;52.530;7.320;2024-02-21T13:53:32;7.70;;;3.23;;
11064;SDS011;5585;52.530;7.320;2024-02-21T13:55:59;7.63;;;3.37;;
11064;SDS011;5585;52.530;7.320;2024-02-21T13:58:26;4.97;;;2.77;;
11064;SDS011;5585;52.530;7.320;2024-02-21T14:00:52;5.93;;;3.33;;
11064;SDS011;5585;52.530;7.320;2024-02-21T14:03:19;7.00;;;3.30;;
11064;SDS011;5585;52.530;7.320;2024-02-21T14:05:46;6.80;;;3.60;;
11064;SDS011;5585;52.530;7.320;2024-02-21T14:08:15;4.83;;;3.53;;
11064;SDS011;5585;52.530;7.320;2024-02-21T14:10:41;7.10;;;3.30;;
11064;SDS011;5585;52.530;7.320;2024-02-21T14:13:07;5.90;;;3.47;;
11064;SDS011;5585;52.530;7.320;2024-02-21T14:15:34;7.30;;;3.33;;
11064;SDS011;5585;52.530;7.320;2024-02-21T14:18:01;6.20;;;3.70;;
11064;SDS011;5585;52.530;7.320;2024-02-21T14:20:30;7.67;;;4.00;;
11064;SDS011;5585;52.530;7.320;2024-02-21T14:22:57;7.67;;;3.40;;
11064;SDS011;5585;52.530;7.320;2024-02-21T14:25:25;6.37;;;4.00;;
11064;SDS011;5585;52.530;7.320;2024-02-21T14:27:51;7.73;;;4.07;;
11064;SDS011;5585;52.530;7.320;2024-02-21T14:30:17;6.37;;;4.40;;
11064;SDS011;5585;52.530;7.320;2024-02-21T14:32:44;4.70;;;3.87;;
11064;SDS011;5585;52.530;7.320;2024-02-21T14:35:11;8.60;;;4.27;;
11064;SDS011;5585;52.530;7.320;2024-02-21T14:37:37;7.37;;;4.10;;
11064;SDS011;5585;52.530;7.320;2024-02-21T14:40:04;7.17;;;4.70;;
11064;SDS011;5585;52.530;7.320;2024-02-21T14:42:32;7.13;;;4.93;;
11064;SDS011;5585;52.530;7.320;2024-02-21T14:44:59;6.83;;;4.60;;